Urfa, Turkey

11:40 PM +03 on February 23, 2017 (GMT +0300)
Sanliurfa | | Change Station

Elev 2707 ft 37.45 °N, 38.90 °E | Updated 20 minutes ago

Clear
Clear
45 °F
Feels Like 42 °F
N
5
Wind Variable Wind from SSW

Today
High -- | Low -- °F
--% Chance of Precip.
Yesterday
High -- | Low -- °F
Precip. -- in
Pressure 30.18 in
Visibility -9999.0 miles
Clouds
Windchill 42 °F
Dew Point 25 °F
Humidity 46%
Rainfall 0.00 in
Snow Depth Not available.
7:03 AM 6:13 PM
Waning Crescent, 8% visible
METAR LTCS 232020Z 20004KT CAVOK 07/M04 Q1022 RMK RWY22 19008KT
Pressure 30.18 in
Visibility -9999.0 miles
Clouds
Windchill 42 °F
Dew Point 25 °F
Humidity 46%
Rainfall 0.00 in
Snow Depth Not available.
7:03 AM 6:13 PM
Waning Crescent, 8% visible
METAR LTCS 232020Z 20004KT CAVOK 07/M04 Q1022 RMK RWY22 19008KT

Get Your Daily Forecast Email!

Thanks for signing up!

Be on the lookout for a verification email in your inbox.

You'll start receiving the daily forecast at 8 AM.

×

10-Day Weather Forecast

×

Almanac

Astronomy

Feb. 23, 2017 Rise Set
Actual Time
Civil Twilight
Nautical Twilight
Astronomical Twilight
Moon
Length of Visible Light
Length of Day
Tomorrow will be .
, % of the Moon is Illuminated

Today's Extremes

Country Highs Country Lows

Community

WunderPhotos

Upload Photos

1,962,540 photos uploaded!

WunderBlog® & News

Nearby

Air Quality

  Air Quality AQ Index Pollutant
Not available.

Snow Depth

Station Depth Elevation

Earthquake Activity

City Distance Mag. Time & Date
Minimum magnitude displayed is 2.5.

Coastal Water Temperatures

Place Temperature

Stations

Nearby Weather Stations

Station Location Temp. Windchill Dew Point Humidity Wind Precip. Elev Updated Type